Huntsville, Missouri
Current Conditions -  °F | °C
As of 5:15 PM on Saturday 25 Oct 2014 (Local Time) from KVER Reporting Station
Clear Clear  
Wind Chill: 79°   Ceiling: Unl
Heat Index: 79°   Visibility: 10mi
Dew Point: 50°   Wind: 0mph
Humidity: 36%   Direction: NA
Pressure: 30.02"   Gusts: NA
Location:  39.44°N, 92.55°W
Report Text: KVER 252215Z AUTO 00000KT 10SM CLR 26/10 A3002 RMK AO2 T02590098
Loading
Personal Weather Stations






























Interactive Weather Map
Tropical Storm Tracking
New forecast layout! Learn more

10-Day Weather Forecast

Advertisements
Track Severe Weather on mobile